Suomigracht — PHBT — position and weather

sailwx.info

Track history (hours):
 
Tides and Currents Weather Stations Pressure Air Temp Water Temp Dewpoint Dewpoint Depression Visibility Wind Speed Wind Dir Waves Ship Positions

Suomigracht

Last reported at 2017-Mar-14 16:33 UTC. Time now 2017-Mar-24 20:05 UTC.
Position N 59°33' E 021°21'.
Warning: this ship's position is 10 days out of date.

Length 173 m; beam 26 m.

Type: Cargo ship. MMSI: 246100000.

Date/timePositionNaut miles runAvg speedWind from/ knotsBaromVisibWave heightAir tempDewpointWater temp
2017-Mar-14 16:33N 59°33' E 021°21'1515.2
2017-Mar-14 15:34N 59°32' E 021°51'4615.3
2017-Mar-14 12:32N 59°39' E 023°21'1515.6
2017-Mar-14 11:33N 59°43' E 023°51'7915.7
2017-Mar-14 06:32N 60°09' E 026°19'1212.5
2017-Mar-14 05:33N 60°18' E 026°34'1212.5
2017-Mar-14 04:33N 60°25' E 026°55'1 0.7
2017-Mar-14 03:33N 60°26' E 026°55'0 0.0
2017-Mar-14 02:33N 60°26' E 026°55'0 0.0
2017-Mar-14 01:33N 60°26' E 026°55'0 0.0
2017-Mar-14 00:30N 60°26' E 026°55'0 0.0
2017-Mar-13 23:33N 60°26' E 026°55'0 0.0
2017-Mar-13 22:33N 60°26' E 026°55'0 0.0
2017-Mar-13 21:33N 60°26' E 026°55'0 0.0
2017-Mar-13 20:33N 60°26' E 026°55'0 0.0
2017-Mar-13 19:33N 60°26' E 026°55'0 0.0
2017-Mar-13 18:33N 60°26' E 026°55'0 0.0
2017-Mar-13 17:33N 60°26' E 026°55'0 0.0
2017-Mar-13 16:33N 60°26' E 026°55'0 0.0
2017-Mar-13 15:33N 60°26' E 026°55'0 0.0
2017-Mar-13 14:33N 60°26' E 026°55'0 0.0
2017-Mar-13 13:33N 60°26' E 026°55'0 0.0
2017-Mar-13 12:30N 60°26' E 026°55'0 0.0
2017-Mar-13 11:33N 60°26' E 026°55'0 0.0
2017-Mar-13 10:33N 60°26' E 026°55'0 0.0
2017-Mar-13 09:33N 60°26' E 026°55'0 0.0
2017-Mar-13 08:33N 60°26' E 026°55'0 0.0
2017-Mar-13 07:33N 60°26' E 026°55'0 0.0
2017-Mar-13 06:33N 60°26' E 026°55'0 0.0
2017-Mar-13 05:33N 60°26' E 026°55'0 0.0
2017-Mar-13 04:33N 60°26' E 026°55'0 0.0
2017-Mar-13 03:33N 60°26' E 026°55'0 0.0
2017-Mar-13 02:30N 60°26' E 026°55'0 0.0
2017-Mar-13 01:33N 60°26' E 026°55'0 0.0
2017-Mar-13 00:33N 60°26' E 026°55'1 1.5
2017-Mar-12 23:34N 60°24' E 026°54'1413.5
2017-Mar-12 22:34N 60°12' E 026°42'8 8.0
2017-Mar-12 21:34N 60°07' E 026°29'9114.3
2017-Mar-12 15:13N 59°35' E 023°40'28914.5
2017-Mar-11 19:20N 56°13' E 017°10'1114.4
2017-Mar-11 18:33N 56°06' E 016°55'1414.4
2017-Mar-11 17:33N 55°58' E 016°33'1414.4
2017-Mar-11 16:33N 55°52' E 016°10'1615.8
2017-Mar-11 15:33N 55°44' E 015°45'1414.3
2017-Mar-11 14:33N 55°37' E 015°23'1514.2
2017-Mar-11 13:29N 55°30' E 014°60'1314.2
2017-Mar-11 12:33N 55°23' E 014°39'1414.3
2017-Mar-11 11:33N 55°12' E 014°23'1414.1
2017-Mar-11 10:34N 55°02' E 014°07'1514.5
2017-Mar-11 09:33N 54°57' E 013°43'2814.2
2017-Mar-11 07:34N 54°48' E 012°57'1414.0
2017-Mar-11 06:33N 54°42' E 012°34'1414.1
2017-Mar-11 05:33N 54°33' E 012°16'1211.5
2017-Mar-11 04:31N 54°25' E 012°01'1414.8
2017-Mar-11 03:34N 54°27' E 011°37'1514.9
2017-Mar-11 02:33N 54°34' E 011°14'1414.2
2017-Mar-11 01:33N 54°39' E 010°51'1312.9
2017-Mar-11 00:33N 54°51' E 010°50'1414.4
2017-Mar-10 23:33N 55°05' E 010°60'11713.9
2017-Mar-10 15:07N 56°60' E 011°43'814.8
2017-Mar-10 14:33N 57°07' E 011°38'1414.2
2017-Mar-10 13:33N 57°21' E 011°28'1211.6
2017-Mar-10 12:33N 57°31' E 011°18'1413.8
2017-Mar-10 11:33N 57°36' E 010°54'11 3.6
2017-Mar-10 08:34N 57°40' E 010°36'0 0.0
2017-Mar-10 07:24N 57°40' E 010°36'0 0.4
2017-Mar-10 06:33N 57°40' E 010°37'7 6.9
2017-Mar-10 05:33N 57°45' E 010°46'1010.3
2017-Mar-10 04:33N 57°47' E 010°27'33814.0
2017-Mar-09 04:23N 53°14' E 004°35'1417.2
2017-Mar-09 03:33N 53°02' E 004°24'1514.9
2017-Mar-09 02:33N 52°49' E 004°12'1414.1
2017-Mar-09 01:34N 52°39' E 003°56'1413.8
2017-Mar-09 00:33N 52°28' E 003°40'6715.6
2017-Mar-08 20:16N 51°39' E 002°26'1115.4
2017-Mar-08 19:33N 51°31' E 002°16'1414.4
2017-Mar-08 18:33N 51°17' E 002°07'1414.2
2017-Mar-08 17:33N 51°09' E 001°49'1414.0
2017-Mar-08 16:33N 50°58' E 001°35'5613.5
2017-Mar-08 12:23N 50°24' E 000°23'1314.2
2017-Mar-08 11:27N 50°21' E 000°02'5514.2
2017-Mar-08 07:33N 50°08' W 001°21'1615.9
2017-Mar-08 06:33N 50°03' W 001°45'1716.7
2017-Mar-08 05:33N 49°57' W 002°09'12915.8
2017-Mar-07 21:26N 48°58' W 005°05'1315.3
2017-Mar-07 20:33N 48°50' W 005°22'  
Track history (hours):
 
Tides and Currents Weather Stations Pressure Air Temp Water Temp Dewpoint Dewpoint Depression Visibility Wind Speed Wind Dir Waves Ship Positions

Suomigracht

Last reported at 2017-Mar-14 16:33 UTC. Time now 2017-Mar-24 20:05 UTC.
Position N 59°33' E 021°21'.
Warning: this ship's position is 10 days out of date.

Length 173 m; beam 26 m.

Type: Cargo ship. MMSI: 246100000.

Date/timePositionNaut miles runAvg speedWind from/ knotsBaromVisibWave heightAir tempDewpointWater temp
2017-Mar-14 16:33N 59°33' E 021°21'1515.2
2017-Mar-14 15:34N 59°32' E 021°51'4615.3
2017-Mar-14 12:32N 59°39' E 023°21'1515.6
2017-Mar-14 11:33N 59°43' E 023°51'7915.7
2017-Mar-14 06:32N 60°09' E 026°19'1212.5
2017-Mar-14 05:33N 60°18' E 026°34'1212.5
2017-Mar-14 04:33N 60°25' E 026°55'1 0.7
2017-Mar-14 03:33N 60°26' E 026°55'0 0.0
2017-Mar-14 02:33N 60°26' E 026°55'0 0.0
2017-Mar-14 01:33N 60°26' E 026°55'0 0.0
2017-Mar-14 00:30N 60°26' E 026°55'0 0.0
2017-Mar-13 23:33N 60°26' E 026°55'0 0.0
2017-Mar-13 22:33N 60°26' E 026°55'0 0.0
2017-Mar-13 21:33N 60°26' E 026°55'0 0.0
2017-Mar-13 20:33N 60°26' E 026°55'0 0.0
2017-Mar-13 19:33N 60°26' E 026°55'0 0.0
2017-Mar-13 18:33N 60°26' E 026°55'0 0.0
2017-Mar-13 17:33N 60°26' E 026°55'0 0.0
2017-Mar-13 16:33N 60°26' E 026°55'0 0.0
2017-Mar-13 15:33N 60°26' E 026°55'0 0.0
2017-Mar-13 14:33N 60°26' E 026°55'0 0.0
2017-Mar-13 13:33N 60°26' E 026°55'0 0.0
2017-Mar-13 12:30N 60°26' E 026°55'0 0.0
2017-Mar-13 11:33N 60°26' E 026°55'0 0.0
2017-Mar-13 10:33N 60°26' E 026°55'0 0.0
2017-Mar-13 09:33N 60°26' E 026°55'0 0.0
2017-Mar-13 08:33N 60°26' E 026°55'0 0.0
2017-Mar-13 07:33N 60°26' E 026°55'0 0.0
2017-Mar-13 06:33N 60°26' E 026°55'0 0.0
2017-Mar-13 05:33N 60°26' E 026°55'0 0.0
2017-Mar-13 04:33N 60°26' E 026°55'0 0.0
2017-Mar-13 03:33N 60°26' E 026°55'0 0.0
2017-Mar-13 02:30N 60°26' E 026°55'0 0.0
2017-Mar-13 01:33N 60°26' E 026°55'0 0.0
2017-Mar-13 00:33N 60°26' E 026°55'1 1.5
2017-Mar-12 23:34N 60°24' E 026°54'1413.5
2017-Mar-12 22:34N 60°12' E 026°42'8 8.0
2017-Mar-12 21:34N 60°07' E 026°29'9114.3
2017-Mar-12 15:13N 59°35' E 023°40'28914.5
2017-Mar-11 19:20N 56°13' E 017°10'1114.4
2017-Mar-11 18:33N 56°06' E 016°55'1414.4
2017-Mar-11 17:33N 55°58' E 016°33'1414.4
2017-Mar-11 16:33N 55°52' E 016°10'1615.8
2017-Mar-11 15:33N 55°44' E 015°45'1414.3
2017-Mar-11 14:33N 55°37' E 015°23'1514.2
2017-Mar-11 13:29N 55°30' E 014°60'1314.2
2017-Mar-11 12:33N 55°23' E 014°39'1414.3
2017-Mar-11 11:33N 55°12' E 014°23'1414.1
2017-Mar-11 10:34N 55°02' E 014°07'1514.5
2017-Mar-11 09:33N 54°57' E 013°43'2814.2
2017-Mar-11 07:34N 54°48' E 012°57'1414.0
2017-Mar-11 06:33N 54°42' E 012°34'1414.1
2017-Mar-11 05:33N 54°33' E 012°16'1211.5
2017-Mar-11 04:31N 54°25' E 012°01'1414.8
2017-Mar-11 03:34N 54°27' E 011°37'1514.9
2017-Mar-11 02:33N 54°34' E 011°14'1414.2
2017-Mar-11 01:33N 54°39' E 010°51'1312.9
2017-Mar-11 00:33N 54°51' E 010°50'1414.4
2017-Mar-10 23:33N 55°05' E 010°60'11713.9
2017-Mar-10 15:07N 56°60' E 011°43'814.8
2017-Mar-10 14:33N 57°07' E 011°38'1414.2
2017-Mar-10 13:33N 57°21' E 011°28'1211.6
2017-Mar-10 12:33N 57°31' E 011°18'1413.8
2017-Mar-10 11:33N 57°36' E 010°54'11 3.6
2017-Mar-10 08:34N 57°40' E 010°36'0 0.0
2017-Mar-10 07:24N 57°40' E 010°36'0 0.4
2017-Mar-10 06:33N 57°40' E 010°37'7 6.9
2017-Mar-10 05:33N 57°45' E 010°46'1010.3
2017-Mar-10 04:33N 57°47' E 010°27'33814.0
2017-Mar-09 04:23N 53°14' E 004°35'1417.2
2017-Mar-09 03:33N 53°02' E 004°24'1514.9
2017-Mar-09 02:33N 52°49' E 004°12'1414.1
2017-Mar-09 01:34N 52°39' E 003°56'1413.8
2017-Mar-09 00:33N 52°28' E 003°40'6715.6
2017-Mar-08 20:16N 51°39' E 002°26'1115.4
2017-Mar-08 19:33N 51°31' E 002°16'1414.4
2017-Mar-08 18:33N 51°17' E 002°07'1414.2
2017-Mar-08 17:33N 51°09' E 001°49'1414.0
2017-Mar-08 16:33N 50°58' E 001°35'5613.5
2017-Mar-08 12:23N 50°24' E 000°23'1314.2
2017-Mar-08 11:27N 50°21' E 000°02'5514.2
2017-Mar-08 07:33N 50°08' W 001°21'1615.9
2017-Mar-08 06:33N 50°03' W 001°45'1716.7
2017-Mar-08 05:33N 49°57' W 002°09'12915.8
2017-Mar-07 21:26N 48°58' W 005°05'1315.3
2017-Mar-07 20:33N 48°50' W 005°22'  

Dump ship's entire track history